createdAt,value
2018-07-21T18:02:12.656Z,100221.30
2018-07-21T18:04:39.915Z,100215.13
2018-07-21T18:07:07.847Z,100213.72
2018-07-21T18:09:35.833Z,100222.83
2018-07-21T18:12:03.172Z,100222.16
2018-07-21T18:14:30.566Z,100212.55
2018-07-21T18:16:57.879Z,100219.13
2018-07-21T18:19:25.596Z,100220.11
2018-07-21T18:21:52.872Z,100213.67
2018-07-21T18:24:20.322Z,100214.30
2018-07-21T18:26:47.588Z,100214.73
2018-07-21T18:29:14.839Z,100217.28
2018-07-21T18:31:42.131Z,100214.41
2018-07-21T18:34:09.512Z,100211.69
2018-07-21T18:36:36.800Z,100222.63
2018-07-21T18:39:06.861Z,100213.92
2018-07-21T18:41:34.277Z,100217.78
2018-07-21T18:44:01.795Z,100219.81
2018-07-21T18:46:29.083Z,100227.47
2018-07-21T18:48:56.414Z,100226.05
2018-07-21T18:51:23.689Z,100225.98
2018-07-21T18:53:50.937Z,100224.97
2018-07-21T18:56:19.418Z,100222.23
2018-07-21T18:58:46.695Z,100220.77
2018-07-21T19:01:14.988Z,100234.61
2018-07-21T19:03:42.261Z,100222.30
2018-07-21T19:06:09.700Z,100226.64
2018-07-21T19:08:42.839Z,100225.19
2018-07-21T19:11:10.301Z,100226.98
2018-07-21T19:13:37.721Z,100232.90
2018-07-21T19:16:10.640Z,100237.41
2018-07-21T19:18:38.084Z,100236.94
2018-07-21T19:21:11.310Z,100240.05
2018-07-21T19:23:39.264Z,100235.16
2018-07-21T19:26:12.306Z,100250.39
2018-07-21T19:28:39.616Z,100237.31
2018-07-21T19:31:06.918Z,100245.19
2018-07-21T19:33:34.935Z,100245.91
2018-07-21T19:36:02.259Z,100250.06
2018-07-21T19:38:29.540Z,100257.59
2018-07-21T19:41:00.830Z,100256.91
2018-07-21T19:43:28.354Z,100258.72
2018-07-21T19:45:55.736Z,100264.15
2018-07-21T19:48:23.483Z,100264.44
2018-07-21T19:50:51.416Z,100269.79
2018-07-21T19:53:18.765Z,100271.97
2018-07-21T19:55:46.049Z,100274.80
2018-07-21T19:58:13.369Z,100269.53
2018-07-21T20:00:40.707Z,100267.67
2018-07-21T20:03:08.021Z,100274.30
2018-07-21T20:05:35.288Z,100269.88
2018-07-21T20:08:02.558Z,100279.09
2018-07-21T20:10:29.913Z,100278.52
2018-07-21T20:12:57.201Z,100277.44
2018-07-21T20:15:24.491Z,100281.72
2018-07-21T20:17:51.892Z,100280.07
2018-07-21T20:20:19.452Z,100280.58
2018-07-21T20:22:47.373Z,100283.23
2018-07-21T20:25:14.825Z,100285.59
2018-07-21T20:27:42.743Z,100288.53
2018-07-21T20:30:10.752Z,100287.87
2018-07-21T20:32:38.059Z,100290.42
2018-07-21T20:35:05.332Z,100287.77
2018-07-21T20:37:32.640Z,100295.47
2018-07-21T20:39:59.922Z,100295.34
2018-07-21T20:42:27.270Z,100297.59
2018-07-21T20:44:54.529Z,100299.15
2018-07-21T20:47:21.870Z,100302.28
2018-07-21T20:49:49.186Z,100301.11
2018-07-21T20:52:16.448Z,100309.23
2018-07-21T20:54:43.716Z,100302.73
2018-07-21T20:57:11.011Z,100295.77
2018-07-21T20:59:38.366Z,100298.52
2018-07-21T21:02:05.674Z,100295.69
2018-07-21T21:04:32.953Z,100296.20
2018-07-21T21:07:00.233Z,100296.73
2018-07-21T21:09:27.586Z,100287.77
2018-07-21T21:11:54.889Z,100292.68
2018-07-21T21:14:22.194Z,100296.38
2018-07-21T21:16:49.503Z,100287.38
2018-07-21T21:19:16.808Z,100282.88
2018-07-21T21:21:44.096Z,100282.41
2018-07-21T21:24:11.366Z,100280.53
2018-07-21T21:26:38.668Z,100286.14
2018-07-21T21:29:05.892Z,100283.36
2018-07-21T21:31:33.191Z,100287.91
2018-07-21T21:34:00.481Z,100284.53
2018-07-21T21:36:27.799Z,100285.99
2018-07-21T21:38:55.088Z,100282.80
2018-07-21T21:41:22.351Z,100285.77
2018-07-21T21:43:49.615Z,100284.68
2018-07-21T21:46:16.907Z,100281.30
2018-07-21T21:48:44.405Z,100287.77
2018-07-21T21:51:12.239Z,100290.05
2018-07-21T21:53:39.550Z,100284.47
2018-07-21T21:56:06.987Z,100282.15
2018-07-21T21:58:34.275Z,100288.13
2018-07-21T22:01:12.993Z,100285.35
2018-07-21T22:03:40.305Z,100288.56
2018-07-21T22:06:07.608Z,100294.89
2018-07-21T22:08:34.904Z,100284.55
2018-07-21T22:11:02.678Z,100290.27
2018-07-21T22:13:30.024Z,100283.34
2018-07-21T22:15:57.720Z,100298.80
2018-07-21T22:18:25.385Z,100291.13
2018-07-21T22:20:52.680Z,100288.22
2018-07-21T22:23:20.016Z,100295.77
2018-07-21T22:25:47.276Z,100298.80
2018-07-21T22:28:14.578Z,100299.79
2018-07-21T22:30:41.854Z,100303.17
2018-07-21T22:33:09.124Z,100307.19
2018-07-21T22:35:36.416Z,100312.43
2018-07-21T22:38:03.759Z,100309.88
2018-07-21T22:40:31.061Z,100310.98
2018-07-21T22:42:58.646Z,100320.70
2018-07-21T22:45:25.979Z,100319.36
2018-07-21T22:47:53.259Z,100317.78
2018-07-21T22:50:20.527Z,100317.08
2018-07-21T22:52:47.768Z,100328.48
2018-07-21T22:55:15.074Z,100321.80
2018-07-21T22:57:42.501Z,100322.61
2018-07-21T23:00:09.767Z,100324.94
2018-07-21T23:02:37.136Z,100320.92
2018-07-21T23:05:04.507Z,100319.70
2018-07-21T23:07:31.764Z,100319.75
2018-07-21T23:09:59.004Z,100318.30
2018-07-21T23:12:26.259Z,100316.34
2018-07-21T23:14:53.593Z,100315.61
2018-07-21T23:17:20.906Z,100317.94
2018-07-21T23:19:48.205Z,100321.36
2018-07-21T23:22:15.515Z,100313.57
2018-07-21T23:24:42.829Z,100320.09
2018-07-21T23:27:10.473Z,100317.06
2018-07-21T23:29:37.810Z,100313.41
2018-07-21T23:32:05.079Z,100322.19
2018-07-21T23:37:42.177Z,100319.04
2018-07-21T23:40:11.272Z,100325.84
2018-07-21T23:42:39.417Z,100327.58
2018-07-21T23:45:08.059Z,100330.97
2018-07-21T23:47:36.036Z,100332.58
2018-07-21T23:50:05.116Z,100331.13
2018-07-21T23:52:33.272Z,100331.72
2018-07-21T23:55:01.856Z,100330.38
2018-07-21T23:57:30.361Z,100330.03
